createdAt,value
2023-05-19T00:00:31.468Z,3.23
2023-05-19T00:01:55.892Z,3.50
2023-05-19T00:03:04.054Z,3.45
2023-05-19T00:04:11.125Z,3.40
2023-05-19T00:05:19.136Z,3.43
2023-05-19T00:06:32.352Z,3.47
2023-05-19T00:07:39.495Z,3.56
2023-05-19T00:08:45.743Z,3.48
2023-05-19T00:09:51.939Z,3.45
2023-05-19T00:10:58.883Z,3.50
2023-05-19T00:12:04.364Z,3.26
2023-05-19T00:13:10.610Z,3.38
2023-05-19T00:14:17.529Z,3.42
2023-05-19T00:15:23.273Z,3.37
2023-05-19T00:16:31.000Z,3.34
2023-05-19T00:17:38.799Z,3.31
2023-05-19T00:18:44.196Z,3.40
2023-05-19T00:19:51.080Z,3.35
2023-05-19T00:20:57.226Z,3.37
2023-05-19T00:22:03.833Z,3.53
2023-05-19T00:23:10.053Z,3.31
2023-05-19T00:24:16.620Z,3.31
2023-05-19T00:25:22.913Z,3.38
2023-05-19T00:26:28.665Z,3.24
2023-05-19T00:27:40.180Z,3.26
2023-05-19T00:28:46.806Z,3.19
2023-05-19T00:29:52.560Z,3.40
2023-05-19T00:30:59.055Z,3.37
2023-05-19T00:32:05.596Z,3.29
2023-05-19T00:33:11.300Z,3.34
2023-05-19T00:34:17.613Z,3.43
2023-05-19T00:35:24.585Z,3.55
2023-05-19T00:36:30.701Z,3.53
2023-05-19T00:37:36.986Z,3.38
2023-05-19T00:38:42.396Z,3.40
2023-05-19T00:39:48.139Z,3.44
2023-05-19T00:40:53.721Z,3.38
2023-05-19T00:41:59.500Z,3.30
2023-05-19T00:43:06.236Z,3.38
2023-05-19T00:44:12.086Z,3.34
2023-05-19T00:45:17.893Z,3.34
2023-05-19T00:46:23.766Z,3.33
2023-05-19T00:47:29.747Z,3.22
2023-05-19T00:48:36.063Z,3.48
2023-05-19T00:49:41.810Z,3.30
2023-05-19T00:50:47.806Z,3.30
2023-05-19T00:51:53.682Z,3.35
2023-05-19T00:52:59.825Z,3.40
2023-05-19T00:54:06.039Z,3.48
2023-05-19T00:55:12.300Z,3.43
2023-05-19T00:56:18.667Z,3.29
2023-05-19T00:57:24.909Z,3.34
2023-05-19T00:58:31.659Z,3.30
2023-05-19T00:59:37.681Z,3.39
2023-05-19T01:00:43.876Z,3.33
2023-05-19T01:01:49.991Z,3.48
2023-05-19T01:02:56.988Z,3.39
2023-05-19T01:04:04.850Z,3.37
2023-05-19T01:05:12.369Z,3.19
2023-05-19T01:06:19.954Z,3.40
2023-05-19T01:07:28.196Z,3.49
2023-05-19T01:08:38.005Z,3.37
2023-05-19T01:09:43.518Z,3.33
2023-05-19T01:10:49.797Z,3.32
2023-05-19T01:11:55.946Z,3.34
2023-05-19T01:13:03.331Z,3.49
2023-05-19T01:14:10.518Z,3.36
2023-05-19T01:15:17.521Z,3.33
2023-05-19T01:16:31.242Z,3.41
2023-05-19T01:17:46.985Z,3.39
2023-05-19T01:19:05.618Z,3.41
2023-05-19T01:20:35.800Z,3.53
2023-05-19T01:22:08.023Z,3.33
2023-05-19T01:23:51.647Z,3.37
2023-05-19T01:25:29.676Z,3.37
2023-05-19T01:27:15.663Z,3.24
2023-05-19T01:28:38.182Z,3.32
2023-05-19T01:30:14.253Z,3.24
2023-05-19T01:31:24.236Z,3.41
2023-05-19T01:32:32.958Z,3.33
2023-05-19T01:33:41.692Z,3.34
2023-05-19T01:34:47.659Z,3.32
2023-05-19T01:35:53.377Z,3.32
2023-05-19T01:36:59.648Z,3.22
2023-05-19T01:38:06.362Z,3.30
2023-05-19T01:39:12.741Z,3.23
2023-05-19T01:40:19.251Z,3.23
2023-05-19T01:41:25.572Z,3.33
2023-05-19T01:42:37.713Z,3.26
2023-05-19T01:43:44.365Z,3.30
2023-05-19T01:44:50.772Z,3.36
2023-05-19T01:45:59.834Z,3.30
2023-05-19T01:47:06.875Z,3.32
2023-05-19T01:48:13.739Z,3.28
2023-05-19T01:49:20.100Z,3.25
2023-05-19T01:50:25.902Z,3.56
2023-05-19T01:51:32.587Z,3.30
2023-05-19T01:52:38.808Z,3.35
2023-05-19T01:53:46.856Z,3.42
2023-05-19T01:54:52.713Z,3.40
2023-05-19T01:55:58.829Z,3.22
2023-05-19T01:57:16.799Z,3.17
2023-05-19T01:58:30.256Z,3.24
2023-05-19T02:00:06.450Z,3.29
2023-05-19T02:01:49.197Z,3.44
2023-05-19T02:03:28.255Z,3.33
2023-05-19T02:04:46.844Z,3.22
2023-05-19T02:06:00.706Z,3.38
2023-05-19T02:07:18.740Z,3.35
2023-05-19T02:08:40.134Z,3.29
2023-05-19T02:10:16.022Z,3.32
2023-05-19T02:11:28.346Z,3.28
2023-05-19T02:12:38.290Z,3.36
2023-05-19T02:13:45.415Z,3.16
2023-05-19T02:15:13.202Z,3.20
2023-05-19T02:16:19.934Z,3.25
2023-05-19T02:17:26.753Z,3.45
2023-05-19T02:18:34.138Z,3.31
2023-05-19T02:19:43.573Z,3.36
2023-05-19T02:20:49.234Z,3.42
2023-05-19T02:21:55.013Z,3.33
2023-05-19T02:23:00.968Z,3.42
2023-05-19T02:24:07.532Z,3.38
2023-05-19T02:25:13.910Z,3.39
2023-05-19T02:26:20.137Z,3.37
2023-05-19T02:27:27.030Z,3.36
2023-05-19T02:28:32.846Z,3.30
2023-05-19T02:29:38.761Z,3.24
2023-05-19T02:30:47.501Z,3.33
2023-05-19T02:31:53.301Z,3.32
2023-05-19T02:32:58.948Z,3.36
2023-05-19T02:34:05.227Z,3.38
2023-05-19T02:35:11.914Z,3.23
2023-05-19T02:36:18.859Z,3.38
2023-05-19T02:37:25.321Z,3.17
2023-05-19T02:38:31.890Z,3.22
2023-05-19T02:39:37.957Z,3.25
2023-05-19T02:40:43.686Z,3.26
2023-05-19T02:41:50.571Z,3.41
2023-05-19T02:42:56.970Z,3.47
2023-05-19T02:44:03.127Z,3.29
2023-05-19T02:45:09.777Z,3.32
2023-05-19T02:46:15.193Z,3.29
2023-05-19T02:47:21.199Z,3.20
2023-05-19T02:48:27.117Z,3.32
2023-05-19T02:49:36.331Z,3.21
2023-05-19T02:50:41.996Z,3.13
2023-05-19T02:51:47.282Z,3.16
2023-05-19T02:52:54.913Z,3.17
2023-05-19T02:54:00.532Z,3.10
2023-05-19T02:55:07.289Z,3.26
2023-05-19T02:56:13.802Z,3.30
2023-05-19T02:57:19.878Z,3.28
2023-05-19T02:58:26.401Z,3.20
2023-05-19T02:59:32.950Z,3.18
2023-05-19T03:00:38.996Z,3.18
2023-05-19T03:01:44.618Z,3.20
2023-05-19T03:02:53.582Z,3.27
2023-05-19T03:04:00.538Z,3.33
2023-05-19T03:05:08.567Z,3.42
2023-05-19T03:06:14.773Z,3.21
2023-05-19T03:07:25.714Z,3.20
2023-05-19T03:08:32.010Z,3.25
2023-05-19T03:09:40.903Z,3.35
2023-05-19T03:10:48.478Z,3.23
2023-05-19T03:11:54.747Z,3.30
2023-05-19T03:13:01.251Z,3.14
2023-05-19T03:14:10.305Z,3.25
2023-05-19T03:15:17.086Z,3.29
2023-05-19T03:16:23.437Z,3.25
2023-05-19T03:17:34.242Z,3.13
2023-05-19T03:18:40.376Z,3.30
2023-05-19T03:19:47.185Z,3.28
2023-05-19T03:20:54.878Z,3.23
2023-05-19T03:22:01.161Z,3.37
2023-05-19T03:23:07.521Z,3.34
2023-05-19T03:24:15.375Z,3.30
2023-05-19T03:25:21.173Z,3.11
2023-05-19T03:26:28.024Z,3.26
2023-05-19T03:27:35.843Z,3.13
2023-05-19T03:28:41.677Z,3.22
2023-05-19T03:29:47.511Z,3.18
2023-05-19T03:30:52.909Z,3.13
2023-05-19T03:32:06.382Z,3.24
2023-05-19T03:33:12.911Z,3.29
2023-05-19T03:34:19.293Z,3.12
2023-05-19T03:35:25.450Z,3.12
2023-05-19T03:36:40.137Z,3.19
2023-05-19T03:37:51.058Z,3.17
2023-05-19T03:38:57.304Z,3.22
2023-05-19T03:40:03.406Z,3.17
2023-05-19T03:41:09.273Z,3.25
2023-05-19T03:42:17.642Z,3.23
2023-05-19T03:43:23.447Z,3.14
2023-05-19T03:44:33.629Z,3.19
2023-05-19T03:45:39.177Z,3.08
2023-05-19T03:47:00.906Z,3.21
2023-05-19T03:48:27.869Z,3.17
2023-05-19T03:49:54.056Z,3.16
2023-05-19T03:51:20.131Z,3.21
2023-05-19T03:52:27.055Z,3.11
2023-05-19T03:53:43.078Z,3.21
2023-05-19T03:54:48.886Z,3.18
2023-05-19T03:55:56.200Z,3.14
2023-05-19T03:57:02.670Z,3.16
2023-05-19T03:58:08.965Z,3.21
2023-05-19T03:59:20.025Z,3.19
2023-05-19T04:00:25.896Z,3.09
2023-05-19T04:01:32.627Z,3.22
2023-05-19T04:02:38.920Z,3.19
2023-05-19T04:03:46.725Z,3.12
2023-05-19T04:04:52.964Z,3.04
2023-05-19T04:05:58.895Z,3.05
2023-05-19T04:07:04.996Z,2.95
2023-05-19T04:08:11.377Z,3.01
2023-05-19T04:09:17.292Z,3.03
2023-05-19T04:10:23.942Z,2.90
2023-05-19T04:11:30.499Z,2.62
2023-05-19T04:12:36.899Z,2.72
2023-05-19T04:13:42.396Z,2.67
2023-05-19T04:14:48.301Z,2.75
2023-05-19T04:15:54.042Z,2.61
2023-05-19T04:17:00.936Z,2.61
2023-05-19T04:18:09.933Z,2.54
2023-05-19T04:19:19.077Z,2.50
2023-05-19T04:20:24.553Z,2.38
2023-05-19T04:21:29.856Z,2.46
2023-05-19T04:22:35.253Z,2.42
2023-05-19T04:23:40.756Z,2.38
2023-05-19T04:24:46.998Z,2.15
2023-05-19T04:25:55.173Z,2.23
2023-05-19T04:27:03.637Z,2.24
2023-05-19T04:28:10.190Z,2.22
2023-05-19T04:29:18.809Z,2.08
2023-05-19T04:30:25.714Z,2.22
2023-05-19T04:31:31.742Z,2.08
2023-05-19T04:32:38.022Z,1.99
2023-05-19T04:33:44.424Z,1.98
2023-05-19T04:34:50.580Z,1.83
2023-05-19T04:36:00.272Z,1.80
2023-05-19T04:37:07.499Z,1.81
2023-05-19T04:38:13.545Z,1.91
2023-05-19T04:39:19.264Z,1.86
2023-05-19T04:40:25.632Z,1.80
2023-05-19T04:41:31.969Z,1.87
2023-05-19T04:42:37.995Z,1.67
2023-05-19T04:43:45.168Z,1.65
2023-05-19T04:44:52.507Z,1.42
2023-05-19T04:45:59.017Z,1.54
2023-05-19T04:47:06.830Z,1.54
2023-05-19T04:48:14.652Z,1.53
2023-05-19T04:49:20.365Z,1.53
2023-05-19T04:50:26.294Z,1.49
2023-05-19T04:51:33.143Z,1.59
2023-05-19T04:52:39.066Z,1.50
2023-05-19T04:53:44.683Z,1.56
2023-05-19T04:54:51.591Z,1.51
2023-05-19T04:55:58.772Z,1.31
2023-05-19T04:57:05.059Z,1.19
2023-05-19T04:58:12.457Z,1.34
2023-05-19T04:59:18.592Z,1.20
2023-05-19T05:00:25.891Z,1.15
2023-05-19T05:01:41.206Z,1.14
2023-05-19T05:02:46.998Z,1.17
2023-05-19T05:03:59.789Z,1.16
2023-05-19T05:05:06.313Z,1.18
2023-05-19T05:06:12.457Z,1.03
2023-05-19T05:07:21.306Z,1.09
2023-05-19T05:08:31.093Z,1.18
2023-05-19T05:09:37.635Z,1.19
2023-05-19T05:10:44.370Z,0.99
2023-05-19T05:11:50.049Z,1.04
2023-05-19T05:12:57.600Z,1.07
2023-05-19T05:14:03.755Z,0.99
2023-05-19T05:15:10.264Z,0.99
2023-05-19T05:16:16.830Z,0.88
2023-05-19T05:17:22.703Z,0.86
2023-05-19T05:18:28.972Z,0.91
2023-05-19T05:19:35.988Z,0.93
2023-05-19T05:20:44.007Z,0.73
2023-05-19T05:21:52.065Z,0.75
2023-05-19T05:22:59.314Z,0.80
2023-05-19T05:24:06.724Z,0.90
2023-05-19T05:25:15.132Z,0.91
2023-05-19T05:26:24.115Z,0.85
2023-05-19T05:27:32.097Z,0.80
2023-05-19T05:28:37.824Z,0.70
2023-05-19T05:29:44.405Z,0.63
2023-05-19T05:30:51.247Z,0.66
2023-05-19T05:31:57.244Z,0.65
2023-05-19T05:33:03.918Z,0.42
2023-05-19T05:34:12.446Z,0.59
2023-05-19T05:35:18.035Z,0.62
2023-05-19T05:36:23.994Z,0.64
2023-05-19T05:37:31.773Z,0.62
2023-05-19T05:38:37.981Z,0.60
2023-05-19T05:39:44.213Z,0.71
2023-05-19T05:40:49.641Z,0.66
2023-05-19T05:41:55.504Z,0.53
2023-05-19T05:43:01.819Z,0.54
2023-05-19T05:44:10.265Z,0.45
2023-05-19T05:45:17.670Z,0.57
2023-05-19T05:46:24.385Z,0.54
2023-05-19T05:47:31.501Z,0.49
2023-05-19T05:48:38.080Z,0.46
2023-05-19T05:49:44.607Z,0.57
2023-05-19T05:50:51.612Z,0.53
2023-05-19T05:52:05.624Z,0.53
2023-05-19T05:53:20.765Z,0.50
2023-05-19T05:54:29.548Z,0.52
2023-05-19T05:55:35.683Z,0.45
2023-05-19T05:56:42.538Z,0.49
2023-05-19T05:57:52.286Z,0.52
2023-05-19T05:58:59.495Z,0.46
2023-05-19T06:00:09.103Z,0.32
2023-05-19T06:01:21.904Z,0.44
2023-05-19T06:02:28.894Z,0.53
2023-05-19T06:03:38.676Z,0.46
2023-05-19T06:04:45.389Z,0.26
2023-05-19T06:05:51.835Z,0.34
2023-05-19T06:07:01.905Z,0.26
2023-05-19T06:08:12.274Z,0.23
2023-05-19T06:09:17.930Z,0.34
2023-05-19T06:10:25.123Z,0.42
2023-05-19T06:11:31.936Z,0.44
2023-05-19T06:12:41.492Z,0.33
2023-05-19T06:13:47.931Z,0.19
2023-05-19T06:15:01.354Z,0.17
2023-05-19T06:16:26.771Z,0.14
2023-05-19T06:17:35.155Z,0.17
2023-05-19T06:18:41.208Z,0.34
2023-05-19T06:19:47.288Z,0.34
2023-05-19T06:20:53.383Z,0.08
2023-05-19T06:22:01.044Z,0.13
2023-05-19T06:23:08.214Z,0.08
2023-05-19T06:24:14.179Z,0.18
2023-05-19T06:25:21.226Z,0.24
2023-05-19T06:26:28.014Z,0.06
2023-05-19T06:27:34.856Z,0.19
2023-05-19T06:28:41.475Z,0.17
2023-05-19T06:29:47.404Z,0.09
2023-05-19T06:30:53.688Z,0.17
2023-05-19T06:32:05.065Z,0.09
2023-05-19T06:33:11.573Z,0.17
2023-05-19T06:34:18.339Z,0.10
2023-05-19T06:35:26.143Z,0.07
2023-05-19T06:36:33.102Z,0.08
2023-05-19T06:37:38.899Z,0.08
2023-05-19T06:38:45.058Z,0.05
2023-05-19T06:39:53.070Z,0.07
2023-05-19T06:40:58.732Z,0.00
2023-05-19T06:42:05.052Z,0.05
2023-05-19T06:43:31.285Z,0.04
2023-05-19T06:44:41.133Z,0.10
2023-05-19T06:45:49.287Z,0.03
2023-05-19T06:46:54.741Z,0.03
2023-05-19T06:48:00.778Z,0.08
2023-05-19T06:49:07.593Z,0.00
2023-05-19T06:50:16.876Z,0.00
2023-05-19T06:51:23.152Z,0.05
2023-05-19T06:52:33.065Z,0.06
2023-05-19T06:53:38.996Z,0.06
2023-05-19T06:54:46.759Z,0.00
2023-05-19T06:55:59.392Z,0.01
2023-05-19T06:57:09.792Z,0.02
2023-05-19T06:58:16.443Z,0.02
2023-05-19T06:59:23.752Z,0.02
2023-05-19T07:00:30.437Z,0.00
2023-05-19T07:01:36.401Z,0.01
2023-05-19T07:02:42.389Z,0.01
2023-05-19T07:03:48.321Z,0.00
2023-05-19T07:04:54.600Z,0.04
2023-05-19T07:06:01.341Z,0.04
2023-05-19T07:07:07.980Z,0.01
2023-05-19T07:08:14.319Z,0.00
2023-05-19T07:09:21.224Z,0.02
2023-05-19T07:10:27.958Z,0.00
2023-05-19T07:11:34.988Z,0.00
2023-05-19T07:12:41.629Z,0.00
2023-05-19T07:13:48.190Z,0.00
2023-05-19T07:14:57.858Z,0.00
2023-05-19T07:16:04.430Z,0.00
2023-05-19T07:17:11.089Z,0.00
2023-05-19T07:18:20.642Z,0.00
2023-05-19T07:19:27.421Z,0.00
2023-05-19T07:20:33.659Z,0.00
2023-05-19T07:21:39.381Z,0.00
2023-05-19T07:22:45.702Z,0.00
2023-05-19T07:23:52.255Z,0.00
2023-05-19T07:25:02.116Z,0.00
2023-05-19T07:26:08.912Z,0.00
2023-05-19T07:27:15.771Z,0.00
2023-05-19T07:28:21.175Z,0.00
2023-05-19T07:29:27.466Z,0.00
2023-05-19T07:30:34.167Z,0.00
2023-05-19T07:31:40.308Z,0.00
2023-05-19T07:32:46.694Z,0.00
2023-05-19T07:33:54.499Z,0.00
2023-05-19T07:35:01.441Z,0.00
2023-05-19T07:36:08.230Z,0.00
2023-05-19T07:37:15.153Z,0.00
2023-05-19T07:38:21.386Z,0.00
2023-05-19T07:39:30.512Z,0.00
2023-05-19T07:40:36.231Z,0.00
2023-05-19T07:41:42.135Z,0.00
2023-05-19T07:42:49.526Z,0.00
2023-05-19T07:43:55.479Z,0.00
2023-05-19T07:45:01.783Z,0.00
2023-05-19T07:46:07.385Z,0.00
2023-05-19T07:47:13.227Z,0.00
2023-05-19T07:48:19.495Z,0.00
2023-05-19T07:49:25.636Z,0.00
2023-05-19T07:50:32.668Z,0.00
2023-05-19T07:51:39.087Z,0.00
2023-05-19T07:52:44.846Z,0.00
2023-05-19T07:53:52.010Z,0.00
2023-05-19T07:54:57.325Z,0.00
2023-05-19T07:56:03.150Z,0.00
2023-05-19T07:57:12.282Z,0.00
2023-05-19T07:58:18.028Z,0.00
2023-05-19T07:59:23.558Z,0.00
2023-05-19T08:00:29.407Z,0.00
2023-05-19T08:01:35.300Z,0.00
2023-05-19T08:02:41.342Z,0.00
2023-05-19T08:03:47.530Z,0.00
2023-05-19T08:04:53.721Z,0.00
2023-05-19T08:05:59.609Z,0.00
2023-05-19T08:07:06.196Z,0.00
2023-05-19T08:08:13.384Z,0.00
2023-05-19T08:09:19.964Z,0.00
2023-05-19T08:10:26.780Z,0.00
2023-05-19T08:11:33.257Z,0.00
2023-05-19T08:12:39.019Z,0.00
2023-05-19T08:13:45.875Z,0.00
2023-05-19T08:14:52.143Z,0.00
2023-05-19T08:16:00.391Z,0.00
2023-05-19T08:17:07.165Z,0.00
2023-05-19T08:18:13.871Z,0.00
2023-05-19T08:19:20.148Z,0.00
2023-05-19T08:20:26.847Z,0.00
2023-05-19T08:21:35.221Z,0.00
2023-05-19T08:22:40.768Z,0.00
2023-05-19T08:23:47.111Z,0.00
2023-05-19T08:24:53.398Z,0.00
2023-05-19T08:25:59.657Z,0.00
2023-05-19T08:27:06.085Z,0.00
2023-05-19T08:28:12.648Z,0.00
2023-05-19T08:29:18.722Z,0.00
2023-05-19T08:30:24.464Z,0.00
2023-05-19T08:31:30.598Z,0.00
2023-05-19T08:32:37.124Z,0.00
2023-05-19T08:33:43.339Z,0.00
2023-05-19T08:34:49.395Z,0.00
2023-05-19T08:35:56.137Z,0.00
2023-05-19T08:37:02.116Z,0.00
2023-05-19T08:38:08.679Z,0.00
2023-05-19T08:39:16.910Z,0.00
2023-05-19T08:40:23.008Z,0.00
2023-05-19T08:41:28.990Z,0.00
2023-05-19T08:42:34.760Z,0.00
2023-05-19T08:43:40.456Z,0.00
2023-05-19T08:44:45.994Z,0.00
2023-05-19T08:45:55.016Z,0.00
2023-05-19T08:47:02.195Z,0.00
2023-05-19T08:48:11.322Z,0.00
2023-05-19T08:49:17.377Z,0.00
2023-05-19T08:50:25.690Z,0.00
2023-05-19T08:51:56.118Z,0.00
2023-05-19T08:53:33.411Z,0.00
2023-05-19T08:55:05.846Z,0.00
2023-05-19T08:56:25.583Z,0.00
2023-05-19T08:57:31.686Z,0.00
2023-05-19T08:58:42.172Z,0.00
2023-05-19T08:59:49.743Z,0.00
2023-05-19T09:00:55.583Z,0.00
2023-05-19T09:02:01.574Z,0.00
2023-05-19T09:04:17.618Z,0.00
2023-05-19T09:05:23.573Z,0.00
2023-05-19T09:06:32.982Z,0.00
2023-05-19T09:07:38.747Z,0.00
2023-05-19T09:08:44.946Z,0.00
2023-05-19T09:09:50.862Z,0.00
2023-05-19T09:10:56.863Z,0.00
2023-05-19T09:12:04.149Z,0.00
2023-05-19T09:13:11.473Z,0.00
2023-05-19T09:14:17.718Z,0.00
2023-05-19T09:15:23.670Z,0.00
2023-05-19T09:16:30.178Z,0.00
2023-05-19T09:17:37.163Z,0.00
2023-05-19T09:18:57.570Z,0.00
2023-05-19T09:20:06.744Z,0.00
2023-05-19T09:21:13.807Z,0.00
2023-05-19T09:22:19.870Z,0.00
2023-05-19T09:23:26.894Z,0.00
2023-05-19T09:24:34.918Z,0.00
2023-05-19T09:25:56.853Z,0.00
2023-05-19T09:27:03.188Z,0.00
2023-05-19T09:28:09.714Z,0.00
2023-05-19T09:29:16.853Z,0.00
2023-05-19T09:30:26.551Z,0.00
2023-05-19T09:31:34.329Z,0.00
2023-05-19T09:32:40.008Z,0.00
2023-05-19T09:33:46.286Z,0.00
2023-05-19T09:34:52.844Z,0.00
2023-05-19T09:35:58.876Z,0.00
2023-05-19T09:37:05.978Z,0.00
2023-05-19T09:38:13.154Z,0.00
2023-05-19T09:39:23.877Z,0.00
2023-05-19T09:40:29.875Z,0.00
2023-05-19T09:41:36.044Z,0.00
2023-05-19T09:42:41.736Z,0.00
2023-05-19T09:43:50.200Z,0.00
2023-05-19T09:45:04.032Z,0.00
2023-05-19T09:46:14.757Z,0.00
2023-05-19T09:47:20.250Z,0.00
2023-05-19T09:48:28.979Z,0.00
2023-05-19T09:49:35.019Z,0.00
2023-05-19T09:50:40.283Z,0.00
2023-05-19T09:51:46.406Z,0.00
2023-05-19T09:52:53.956Z,0.00
2023-05-19T09:54:00.292Z,0.00
2023-05-19T09:55:07.396Z,0.00
2023-05-19T09:56:14.118Z,0.00
2023-05-19T09:57:20.207Z,0.00
2023-05-19T09:58:27.374Z,0.00
2023-05-19T09:59:33.960Z,0.00
2023-05-19T10:00:39.545Z,0.00
2023-05-19T10:01:47.130Z,0.00
2023-05-19T10:02:53.154Z,0.00
2023-05-19T10:03:59.004Z,0.00
2023-05-19T10:05:05.833Z,0.00
2023-05-19T10:06:12.332Z,0.00
2023-05-19T10:07:18.634Z,0.00
2023-05-19T10:08:27.157Z,0.00
2023-05-19T10:09:33.618Z,0.00
2023-05-19T10:10:39.575Z,0.00
2023-05-19T10:11:45.433Z,0.00
2023-05-19T10:12:52.025Z,0.00
2023-05-19T10:13:58.578Z,0.00
2023-05-19T10:15:05.241Z,0.00
2023-05-19T10:16:11.760Z,0.00
2023-05-19T10:17:18.258Z,0.00
2023-05-19T10:18:24.183Z,0.00
2023-05-19T10:19:30.262Z,0.00
2023-05-19T10:20:36.911Z,0.00
2023-05-19T10:21:42.186Z,0.00
2023-05-19T10:22:49.125Z,0.00
2023-05-19T10:23:54.498Z,0.00
2023-05-19T10:25:00.554Z,0.00
2023-05-19T10:26:07.151Z,0.00
2023-05-19T10:27:14.685Z,0.00
2023-05-19T10:28:21.654Z,0.00
2023-05-19T10:29:33.721Z,0.00
2023-05-19T10:30:47.682Z,0.00
2023-05-19T10:31:53.499Z,0.00
2023-05-19T10:32:59.349Z,0.00
2023-05-19T10:34:41.361Z,0.00
2023-05-19T10:36:25.734Z,0.00
2023-05-19T10:38:07.645Z,0.00
2023-05-19T10:39:20.326Z,0.00
2023-05-19T10:40:30.862Z,0.00
2023-05-19T10:41:44.002Z,0.00
2023-05-19T10:43:30.260Z,0.00
2023-05-19T10:44:52.501Z,0.00
2023-05-19T10:45:59.270Z,0.00
2023-05-19T10:47:09.362Z,0.00
2023-05-19T10:48:18.582Z,0.00
2023-05-19T10:49:24.358Z,0.00
2023-05-19T10:50:37.730Z,0.00
2023-05-19T10:51:43.736Z,0.00
2023-05-19T10:52:56.253Z,0.00
2023-05-19T10:54:12.214Z,0.00
2023-05-19T10:55:21.437Z,0.00
2023-05-19T10:56:35.737Z,0.00
2023-05-19T10:57:41.670Z,0.00
2023-05-19T10:58:53.354Z,0.00
2023-05-19T11:00:01.832Z,0.00
2023-05-19T11:01:15.843Z,0.00
2023-05-19T11:02:44.848Z,0.00
2023-05-19T11:03:55.161Z,0.00
2023-05-19T11:05:10.783Z,0.00
2023-05-19T11:06:26.868Z,0.00
2023-05-19T11:07:33.227Z,0.00
2023-05-19T11:08:40.971Z,0.00
2023-05-19T11:09:51.588Z,0.00
2023-05-19T11:10:57.286Z,0.00
2023-05-19T11:12:04.638Z,0.00
2023-05-19T11:13:10.862Z,0.00
2023-05-19T11:14:21.690Z,0.00
2023-05-19T11:15:28.655Z,0.00
2023-05-19T11:16:34.469Z,0.00
2023-05-19T11:17:41.989Z,0.00
2023-05-19T11:18:51.380Z,0.00
2023-05-19T11:19:58.165Z,0.00
2023-05-19T11:21:03.622Z,0.00
2023-05-19T11:22:14.548Z,0.00
2023-05-19T11:23:21.165Z,0.00
2023-05-19T11:24:50.522Z,0.00
2023-05-19T11:25:55.919Z,0.00
2023-05-19T11:27:03.828Z,0.00
2023-05-19T11:28:10.648Z,0.00
2023-05-19T11:29:16.878Z,0.00
2023-05-19T11:30:23.918Z,0.00
2023-05-19T11:31:31.395Z,0.00
2023-05-19T11:32:42.989Z,0.00
2023-05-19T11:33:49.399Z,0.00
2023-05-19T11:34:55.448Z,0.00
2023-05-19T11:36:02.406Z,0.00
2023-05-19T11:37:09.167Z,0.00
2023-05-19T11:38:15.838Z,0.00
2023-05-19T11:39:21.822Z,0.00
2023-05-19T11:40:27.705Z,0.00
2023-05-19T11:41:33.934Z,0.00
2023-05-19T11:42:39.595Z,0.00
2023-05-19T11:43:45.952Z,0.00
2023-05-19T11:44:52.296Z,0.00
2023-05-19T11:45:58.683Z,0.00
2023-05-19T11:47:04.971Z,0.00
2023-05-19T11:48:17.171Z,0.00
2023-05-19T11:49:22.907Z,0.00
2023-05-19T11:50:28.805Z,0.00
2023-05-19T11:51:34.794Z,0.00
2023-05-19T11:52:45.296Z,0.02
2023-05-19T11:53:51.821Z,0.09
2023-05-19T11:55:01.843Z,0.17
2023-05-19T11:56:08.638Z,0.14
2023-05-19T11:57:14.991Z,0.22
2023-05-19T11:58:20.955Z,0.28
2023-05-19T11:59:35.772Z,0.28
2023-05-19T12:00:43.287Z,0.28
2023-05-19T12:01:48.866Z,0.26
2023-05-19T12:02:54.551Z,0.30
2023-05-19T12:04:00.900Z,0.39
2023-05-19T12:05:07.451Z,0.48
2023-05-19T12:06:17.901Z,0.45
2023-05-19T12:07:27.291Z,0.49
2023-05-19T12:08:33.634Z,0.60
2023-05-19T12:09:39.305Z,0.64
2023-05-19T12:10:46.659Z,0.62
2023-05-19T12:11:53.865Z,0.64
2023-05-19T12:13:00.765Z,0.70
2023-05-19T12:14:09.842Z,0.76
2023-05-19T12:15:15.453Z,0.74
2023-05-19T12:16:24.165Z,0.81
2023-05-19T12:17:30.192Z,0.83
2023-05-19T12:18:38.857Z,0.96
2023-05-19T12:19:48.359Z,0.79
2023-05-19T12:20:54.560Z,0.83
2023-05-19T12:22:01.695Z,0.91
2023-05-19T12:23:08.837Z,0.96
2023-05-19T12:24:14.153Z,0.90
2023-05-19T12:25:19.726Z,0.89
2023-05-19T12:26:26.035Z,0.87
2023-05-19T12:27:32.998Z,1.07
2023-05-19T12:28:39.513Z,1.04
2023-05-19T12:29:50.181Z,1.05
2023-05-19T12:30:55.902Z,1.08
2023-05-19T12:32:06.870Z,1.27
2023-05-19T12:33:13.105Z,1.09
2023-05-19T12:34:19.062Z,1.37
2023-05-19T12:35:30.998Z,1.24
2023-05-19T12:36:36.703Z,1.27
2023-05-19T12:37:44.968Z,1.30
2023-05-19T12:38:54.842Z,1.33
2023-05-19T12:40:01.048Z,1.28
2023-05-19T12:41:07.765Z,1.29
2023-05-19T12:42:13.990Z,1.35
2023-05-19T12:43:26.535Z,1.47
2023-05-19T12:44:32.545Z,1.37
2023-05-19T12:45:39.164Z,1.54
2023-05-19T12:46:45.771Z,1.57
2023-05-19T12:47:53.492Z,1.56
2023-05-19T12:49:01.878Z,1.67
2023-05-19T12:50:09.197Z,1.52
2023-05-19T12:51:21.843Z,1.48
2023-05-19T12:52:30.356Z,1.55
2023-05-19T12:53:36.907Z,1.62
2023-05-19T12:54:42.538Z,1.58
2023-05-19T12:55:48.439Z,1.67
2023-05-19T12:56:54.703Z,1.77
2023-05-19T12:58:01.568Z,1.69
2023-05-19T12:59:07.932Z,1.74
2023-05-19T13:00:21.441Z,1.76
2023-05-19T13:01:27.800Z,1.62
2023-05-19T13:02:36.954Z,1.63
2023-05-19T13:03:43.621Z,1.80
2023-05-19T13:04:50.259Z,1.83
2023-05-19T13:05:56.462Z,1.80
2023-05-19T13:07:02.688Z,1.67
2023-05-19T13:08:13.289Z,1.80
2023-05-19T13:09:19.778Z,1.70
2023-05-19T13:10:29.755Z,1.73
2023-05-19T13:11:35.956Z,1.83
2023-05-19T13:12:41.504Z,1.79
2023-05-19T13:13:50.305Z,1.80
2023-05-19T13:14:56.375Z,1.76
2023-05-19T13:16:01.648Z,1.91
2023-05-19T13:17:07.026Z,1.88
2023-05-19T13:18:13.318Z,1.86
2023-05-19T13:20:28.956Z,1.95
2023-05-19T13:21:34.673Z,1.78
2023-05-19T13:22:40.327Z,1.87
2023-05-19T13:23:46.344Z,1.88
2023-05-19T13:24:54.135Z,2.06
2023-05-19T13:26:00.078Z,1.98
2023-05-19T13:27:07.804Z,2.00
2023-05-19T13:28:13.577Z,1.95
2023-05-19T13:29:19.146Z,1.96
2023-05-19T13:30:25.039Z,2.03
2023-05-19T13:31:31.411Z,2.04
2023-05-19T13:32:37.515Z,2.05
2023-05-19T13:33:43.294Z,2.12
2023-05-19T13:34:50.194Z,2.04
2023-05-19T13:35:57.445Z,2.12
2023-05-19T13:37:03.438Z,1.98
2023-05-19T13:38:13.433Z,1.91
2023-05-19T13:39:20.396Z,2.13
2023-05-19T13:40:28.743Z,2.08
2023-05-19T13:41:34.776Z,2.21
2023-05-19T13:42:40.305Z,2.11
2023-05-19T13:43:46.082Z,2.11
2023-05-19T13:44:56.820Z,2.14
2023-05-19T13:46:02.641Z,2.23
2023-05-19T13:47:08.221Z,2.22
2023-05-19T13:48:15.285Z,2.07
2023-05-19T13:49:21.805Z,2.09
2023-05-19T13:50:28.772Z,2.15
2023-05-19T13:51:35.425Z,2.10
2023-05-19T13:52:41.013Z,2.11
2023-05-19T13:53:47.268Z,2.15
2023-05-19T13:54:55.263Z,2.13
2023-05-19T13:56:02.216Z,2.13
2023-05-19T13:57:08.582Z,2.34
2023-05-19T13:58:15.636Z,2.18
2023-05-19T13:59:25.725Z,2.25
2023-05-19T14:00:33.439Z,2.27
2023-05-19T14:01:39.512Z,2.31
2023-05-19T14:02:46.120Z,2.25
2023-05-19T14:03:53.024Z,2.31
2023-05-19T14:04:58.901Z,2.25
2023-05-19T14:06:05.590Z,2.27
2023-05-19T14:07:11.333Z,2.17
2023-05-19T14:08:17.877Z,2.31
2023-05-19T14:09:24.125Z,2.34
2023-05-19T14:10:30.410Z,2.29
2023-05-19T14:11:36.382Z,2.28
2023-05-19T14:13:04.768Z,2.31
2023-05-19T14:14:08.829Z,2.29
2023-05-19T14:15:16.131Z,2.25
2023-05-19T14:16:23.456Z,2.33
2023-05-19T14:17:29.284Z,2.27
2023-05-19T14:18:34.697Z,2.28
2023-05-19T14:19:40.335Z,2.24
2023-05-19T14:20:46.090Z,2.36
2023-05-19T14:21:54.388Z,2.38
2023-05-19T14:22:59.935Z,2.33
2023-05-19T14:24:05.816Z,2.24
2023-05-19T14:25:12.023Z,2.31
2023-05-19T14:26:18.131Z,2.25
2023-05-19T14:27:24.605Z,2.40
2023-05-19T14:28:30.695Z,2.23
2023-05-19T14:29:36.973Z,2.33
2023-05-19T14:30:42.519Z,2.33
2023-05-19T14:31:47.929Z,2.28
2023-05-19T14:32:54.257Z,2.37
2023-05-19T14:34:00.995Z,2.43
2023-05-19T14:35:07.586Z,2.38
2023-05-19T14:36:14.106Z,2.46
2023-05-19T14:37:21.294Z,2.33
2023-05-19T14:38:29.409Z,2.40
2023-05-19T14:39:36.073Z,2.35
2023-05-19T14:40:42.395Z,2.46
2023-05-19T14:41:50.179Z,2.37
2023-05-19T14:42:56.258Z,2.32
2023-05-19T14:44:02.038Z,2.43
2023-05-19T14:45:08.592Z,2.35
2023-05-19T14:46:14.263Z,2.33
2023-05-19T14:47:20.784Z,2.42
2023-05-19T14:48:27.279Z,2.54
2023-05-19T14:49:34.010Z,2.66
2023-05-19T14:50:40.252Z,2.58
2023-05-19T14:51:46.519Z,2.90
2023-05-19T14:52:52.463Z,3.43
2023-05-19T14:53:58.874Z,4.39
2023-05-19T14:55:05.545Z,5.45
2023-05-19T14:56:12.099Z,6.46
2023-05-19T14:57:18.357Z,6.83
2023-05-19T14:58:28.980Z,7.20
2023-05-19T14:59:38.591Z,7.95
2023-05-19T15:00:44.664Z,8.66
2023-05-19T15:01:50.474Z,8.96
2023-05-19T15:02:56.873Z,8.85
2023-05-19T15:04:02.828Z,8.80
2023-05-19T15:05:09.191Z,8.94
2023-05-19T15:06:15.027Z,8.98
2023-05-19T15:07:20.745Z,9.09
2023-05-19T15:08:26.285Z,9.11
2023-05-19T15:09:32.537Z,9.61
2023-05-19T15:10:38.079Z,10.06